sensor_id;sensor_type;location;lat;lon;timestamp;temperature;humidity
3816;DHT22;1923;48.154;11.536;2023-08-12T00:00:05;21.90;99.90
3816;DHT22;1923;48.154;11.536;2023-08-12T00:02:39;21.80;99.90
3816;DHT22;1923;48.154;11.536;2023-08-12T00:05:08;21.80;99.90
3816;DHT22;1923;48.154;11.536;2023-08-12T00:07:38;21.80;99.90
3816;DHT22;1923;48.154;11.536;2023-08-12T00:10:09;21.90;99.90
3816;DHT22;1923;48.154;11.536;2023-08-12T00:12:37;21.80;99.90
3816;DHT22;1923;48.154;11.536;2023-08-12T00:15:09;21.80;99.90
3816;DHT22;1923;48.154;11.536;2023-08-12T00:17:37;21.80;99.90
3816;DHT22;1923;48.154;11.536;2023-08-12T00:20:09;21.80;99.90
3816;DHT22;1923;48.154;11.536;2023-08-12T00:22:39;21.80;99.90
3816;DHT22;1923;48.154;11.536;2023-08-12T00:25:08;21.80;99.90
3816;DHT22;1923;48.154;11.536;2023-08-12T00:27:36;21.80;99.90
3816;DHT22;1923;48.154;11.536;2023-08-12T00:30:07;21.80;99.90
3816;DHT22;1923;48.154;11.536;2023-08-12T00:32:35;21.80;99.90
3816;DHT22;1923;48.154;11.536;2023-08-12T00:35:04;21.80;99.90
3816;DHT22;1923;48.154;11.536;2023-08-12T00:37:32;21.70;99.90
3816;DHT22;1923;48.154;11.536;2023-08-12T00:40:00;21.70;99.90
3816;DHT22;1923;48.154;11.536;2023-08-12T00:42:29;21.70;99.90
3816;DHT22;1923;48.154;11.536;2023-08-12T00:44:57;21.70;99.90
3816;DHT22;1923;48.154;11.536;2023-08-12T00:47:27;21.70;99.90
3816;DHT22;1923;48.154;11.536;2023-08-12T00:49:57;21.60;99.90
3816;DHT22;1923;48.154;11.536;2023-08-12T00:52:26;21.50;99.90
3816;DHT22;1923;48.154;11.536;2023-08-12T00:54:54;21.50;99.90
3816;DHT22;1923;48.154;11.536;2023-08-12T00:57:22;21.50;99.90
3816;DHT22;1923;48.154;11.536;2023-08-12T00:59:51;21.50;99.90
3816;DHT22;1923;48.154;11.536;2023-08-12T01:02:19;21.50;99.90
3816;DHT22;1923;48.154;11.536;2023-08-12T01:04:48;21.40;99.90
3816;DHT22;1923;48.154;11.536;2023-08-12T01:07:16;21.40;99.90
3816;DHT22;1923;48.154;11.536;2023-08-12T01:09:45;21.40;99.90
3816;DHT22;1923;48.154;11.536;2023-08-12T01:12:17;21.40;99.90
3816;DHT22;1923;48.154;11.536;2023-08-12T01:14:50;21.30;99.90
3816;DHT22;1923;48.154;11.536;2023-08-12T01:17:26;21.30;99.90
3816;DHT22;1923;48.154;11.536;2023-08-12T01:19:59;21.20;99.90
3816;DHT22;1923;48.154;11.536;2023-08-12T01:22:28;21.20;99.90
3816;DHT22;1923;48.154;11.536;2023-08-12T01:25:00;21.20;99.90
3816;DHT22;1923;48.154;11.536;2023-08-12T01:27:28;21.10;99.90
3816;DHT22;1923;48.154;11.536;2023-08-12T01:29:57;21.00;99.90
3816;DHT22;1923;48.154;11.536;2023-08-12T01:32:30;21.10;99.90
3816;DHT22;1923;48.154;11.536;2023-08-12T01:35:05;21.00;99.90
3816;DHT22;1923;48.154;11.536;2023-08-12T01:37:35;21.00;99.90
3816;DHT22;1923;48.154;11.536;2023-08-12T01:40:07;21.00;99.90
3816;DHT22;1923;48.154;11.536;2023-08-12T01:42:37;20.90;99.90
3816;DHT22;1923;48.154;11.536;2023-08-12T01:45:07;20.90;99.90
3816;DHT22;1923;48.154;11.536;2023-08-12T01:47:35;20.80;99.90
3816;DHT22;1923;48.154;11.536;2023-08-12T01:50:04;20.80;99.90
3816;DHT22;1923;48.154;11.536;2023-08-12T01:52:33;20.80;99.90
3816;DHT22;1923;48.154;11.536;2023-08-12T01:55:01;20.70;99.90
3816;DHT22;1923;48.154;11.536;2023-08-12T01:57:31;20.70;99.90
3816;DHT22;1923;48.154;11.536;2023-08-12T02:00:00;20.70;99.90
3816;DHT22;1923;48.154;11.536;2023-08-12T02:02:28;20.60;99.90
3816;DHT22;1923;48.154;11.536;2023-08-12T02:04:57;20.60;99.90
3816;DHT22;1923;48.154;11.536;2023-08-12T02:07:25;20.60;99.90
3816;DHT22;1923;48.154;11.536;2023-08-12T02:09:53;20.50;99.90
3816;DHT22;1923;48.154;11.536;2023-08-12T02:12:21;20.50;99.90
3816;DHT22;1923;48.154;11.536;2023-08-12T02:14:51;20.40;99.90
3816;DHT22;1923;48.154;11.536;2023-08-12T02:17:19;20.40;99.90
3816;DHT22;1923;48.154;11.536;2023-08-12T02:19:47;20.40;99.90
3816;DHT22;1923;48.154;11.536;2023-08-12T02:22:15;20.40;99.90
3816;DHT22;1923;48.154;11.536;2023-08-12T02:24:43;20.40;99.90
3816;DHT22;1923;48.154;11.536;2023-08-12T02:27:11;20.50;99.90
3816;DHT22;1923;48.154;11.536;2023-08-12T02:29:39;20.40;99.90
3816;DHT22;1923;48.154;11.536;2023-08-12T02:32:09;20.40;99.90
3816;DHT22;1923;48.154;11.536;2023-08-12T02:34:37;20.30;99.90
3816;DHT22;1923;48.154;11.536;2023-08-12T02:37:05;20.30;99.90
3816;DHT22;1923;48.154;11.536;2023-08-12T02:39:33;20.20;99.90
3816;DHT22;1923;48.154;11.536;2023-08-12T02:42:01;20.20;99.90
3816;DHT22;1923;48.154;11.536;2023-08-12T02:44:29;20.20;99.90
3816;DHT22;1923;48.154;11.536;2023-08-12T02:46:56;20.20;99.90
3816;DHT22;1923;48.154;11.536;2023-08-12T02:49:26;20.20;99.90
3816;DHT22;1923;48.154;11.536;2023-08-12T02:51:54;20.20;99.90
3816;DHT22;1923;48.154;11.536;2023-08-12T02:54:22;20.20;99.90
3816;DHT22;1923;48.154;11.536;2023-08-12T02:56:50;20.10;99.90
3816;DHT22;1923;48.154;11.536;2023-08-12T02:59:18;20.00;99.90
3816;DHT22;1923;48.154;11.536;2023-08-12T03:01:47;20.10;99.90
3816;DHT22;1923;48.154;11.536;2023-08-12T03:04:15;20.10;99.90
3816;DHT22;1923;48.154;11.536;2023-08-12T03:06:44;20.00;99.90
3816;DHT22;1923;48.154;11.536;2023-08-12T03:09:12;20.00;99.90
3816;DHT22;1923;48.154;11.536;2023-08-12T03:11:43;20.00;99.90
3816;DHT22;1923;48.154;11.536;2023-08-12T03:14:11;19.90;99.90
3816;DHT22;1923;48.154;11.536;2023-08-12T03:16:39;19.90;99.90
3816;DHT22;1923;48.154;11.536;2023-08-12T03:19:07;19.90;99.90
3816;DHT22;1923;48.154;11.536;2023-08-12T03:21:36;19.90;99.90
3816;DHT22;1923;48.154;11.536;2023-08-12T03:24:06;19.90;99.90
3816;DHT22;1923;48.154;11.536;2023-08-12T03:26:34;19.80;99.90
3816;DHT22;1923;48.154;11.536;2023-08-12T03:29:02;19.90;99.90
3816;DHT22;1923;48.154;11.536;2023-08-12T03:31:30;19.70;99.90
3816;DHT22;1923;48.154;11.536;2023-08-12T03:33:59;19.70;99.90
3816;DHT22;1923;48.154;11.536;2023-08-12T03:36:27;19.70;99.90
3816;DHT22;1923;48.154;11.536;2023-08-12T03:38:55;19.60;99.90
3816;DHT22;1923;48.154;11.536;2023-08-12T03:41:24;19.60;99.90
3816;DHT22;1923;48.154;11.536;2023-08-12T03:43:52;19.60;99.90
3816;DHT22;1923;48.154;11.536;2023-08-12T03:46:20;19.60;99.90
3816;DHT22;1923;48.154;11.536;2023-08-12T03:48:49;19.50;99.90
3816;DHT22;1923;48.154;11.536;2023-08-12T03:51:17;19.50;99.90
3816;DHT22;1923;48.154;11.536;2023-08-12T03:53:45;19.60;99.90
3816;DHT22;1923;48.154;11.536;2023-08-12T03:56:13;19.50;99.90
3816;DHT22;1923;48.154;11.536;2023-08-12T03:58:43;19.40;99.90
3816;DHT22;1923;48.154;11.536;2023-08-12T04:01:11;19.40;99.90
3816;DHT22;1923;48.154;11.536;2023-08-12T04:03:39;19.40;99.90
3816;DHT22;1923;48.154;11.536;2023-08-12T04:06:09;19.40;99.90
3816;DHT22;1923;48.154;11.536;2023-08-12T04:08:37;19.40;99.90
3816;DHT22;1923;48.154;11.536;2023-08-12T04:11:05;19.40;99.90
3816;DHT22;1923;48.154;11.536;2023-08-12T04:13:33;19.40;99.90
3816;DHT22;1923;48.154;11.536;2023-08-12T04:16:03;19.40;99.90
3816;DHT22;1923;48.154;11.536;2023-08-12T04:18:32;19.40;99.90
3816;DHT22;1923;48.154;11.536;2023-08-12T04:21:00;19.40;99.90
3816;DHT22;1923;48.154;11.536;2023-08-12T04:23:28;19.30;99.90
3816;DHT22;1923;48.154;11.536;2023-08-12T04:25:56;19.30;99.90
3816;DHT22;1923;48.154;11.536;2023-08-12T04:28:24;19.30;99.90
3816;DHT22;1923;48.154;11.536;2023-08-12T04:30:53;19.30;99.90
3816;DHT22;1923;48.154;11.536;2023-08-12T04:33:23;19.30;99.90
3816;DHT22;1923;48.154;11.536;2023-08-12T04:35:52;19.30;99.90
3816;DHT22;1923;48.154;11.536;2023-08-12T04:38:20;19.40;99.90
3816;DHT22;1923;48.154;11.536;2023-08-12T04:40:48;19.40;99.90
3816;DHT22;1923;48.154;11.536;2023-08-12T04:43:17;19.50;99.90
3816;DHT22;1923;48.154;11.536;2023-08-12T04:45:45;19.60;99.90
3816;DHT22;1923;48.154;11.536;2023-08-12T04:48:13;19.70;99.90
3816;DHT22;1923;48.154;11.536;2023-08-12T04:50:43;19.70;99.90
3816;DHT22;1923;48.154;11.536;2023-08-12T04:53:11;19.60;99.90
3816;DHT22;1923;48.154;11.536;2023-08-12T04:55:40;19.60;99.90
3816;DHT22;1923;48.154;11.536;2023-08-12T04:58:11;19.60;99.90
3816;DHT22;1923;48.154;11.536;2023-08-12T05:00:39;19.70;99.90
3816;DHT22;1923;48.154;11.536;2023-08-12T05:03:07;19.90;99.90
3816;DHT22;1923;48.154;11.536;2023-08-12T05:05:36;19.90;99.90
3816;DHT22;1923;48.154;11.536;2023-08-12T05:08:05;20.00;99.90
3816;DHT22;1923;48.154;11.536;2023-08-12T05:10:33;20.10;99.90
3816;DHT22;1923;48.154;11.536;2023-08-12T05:13:01;20.20;99.90
3816;DHT22;1923;48.154;11.536;2023-08-12T05:15:30;20.20;99.90
3816;DHT22;1923;48.154;11.536;2023-08-12T05:17:58;20.30;99.90
3816;DHT22;1923;48.154;11.536;2023-08-12T05:20:26;20.30;99.90
3816;DHT22;1923;48.154;11.536;2023-08-12T05:22:54;20.40;99.90
3816;DHT22;1923;48.154;11.536;2023-08-12T05:25:23;20.50;99.90
3816;DHT22;1923;48.154;11.536;2023-08-12T05:27:52;20.60;99.90
3816;DHT22;1923;48.154;11.536;2023-08-12T05:30:20;20.60;99.90
3816;DHT22;1923;48.154;11.536;2023-08-12T05:32:48;20.60;99.90
3816;DHT22;1923;48.154;11.536;2023-08-12T05:35:16;20.70;99.90
3816;DHT22;1923;48.154;11.536;2023-08-12T05:37:44;20.70;99.90
3816;DHT22;1923;48.154;11.536;2023-08-12T05:40:12;20.80;99.90
3816;DHT22;1923;48.154;11.536;2023-08-12T05:42:42;20.80;99.90
3816;DHT22;1923;48.154;11.536;2023-08-12T05:45:10;20.80;99.90
3816;DHT22;1923;48.154;11.536;2023-08-12T05:47:38;20.90;99.90
3816;DHT22;1923;48.154;11.536;2023-08-12T05:50:07;21.00;99.90
3816;DHT22;1923;48.154;11.536;2023-08-12T05:52:35;21.00;99.90
3816;DHT22;1923;48.154;11.536;2023-08-12T05:55:04;21.10;99.90
3816;DHT22;1923;48.154;11.536;2023-08-12T05:57:33;21.20;99.90
3816;DHT22;1923;48.154;11.536;2023-08-12T06:00:03;21.40;99.90
3816;DHT22;1923;48.154;11.536;2023-08-12T06:02:31;21.50;99.90
3816;DHT22;1923;48.154;11.536;2023-08-12T06:04:59;21.60;99.90
3816;DHT22;1923;48.154;11.536;2023-08-12T06:07:27;21.70;99.90
3816;DHT22;1923;48.154;11.536;2023-08-12T06:09:55;21.80;99.90
3816;DHT22;1923;48.154;11.536;2023-08-12T06:12:24;22.00;99.90
3816;DHT22;1923;48.154;11.536;2023-08-12T06:14:52;22.00;99.90
3816;DHT22;1923;48.154;11.536;2023-08-12T06:17:21;22.00;99.90
3816;DHT22;1923;48.154;11.536;2023-08-12T06:19:49;22.20;99.90
3816;DHT22;1923;48.154;11.536;2023-08-12T06:22:17;22.30;99.90
3816;DHT22;1923;48.154;11.536;2023-08-12T06:24:45;22.40;99.90
3816;DHT22;1923;48.154;11.536;2023-08-12T06:27:13;22.50;99.90
3816;DHT22;1923;48.154;11.536;2023-08-12T06:29:41;22.50;99.90
3816;DHT22;1923;48.154;11.536;2023-08-12T06:32:10;22.60;99.90
3816;DHT22;1923;48.154;11.536;2023-08-12T06:34:42;22.80;99.90
3816;DHT22;1923;48.154;11.536;2023-08-12T06:37:11;23.00;99.90
3816;DHT22;1923;48.154;11.536;2023-08-12T06:39:39;23.20;99.90
3816;DHT22;1923;48.154;11.536;2023-08-12T06:42:07;23.40;99.90
3816;DHT22;1923;48.154;11.536;2023-08-12T06:44:35;23.60;99.90
3816;DHT22;1923;48.154;11.536;2023-08-12T06:47:04;23.80;99.90
3816;DHT22;1923;48.154;11.536;2023-08-12T06:49:32;23.90;99.90
3816;DHT22;1923;48.154;11.536;2023-08-12T06:52:02;23.90;99.90
3816;DHT22;1923;48.154;11.536;2023-08-12T06:54:30;23.90;99.90
3816;DHT22;1923;48.154;11.536;2023-08-12T06:56:58;23.90;99.90
3816;DHT22;1923;48.154;11.536;2023-08-12T06:59:26;24.20;99.90
3816;DHT22;1923;48.154;11.536;2023-08-12T07:01:54;24.70;99.90
3816;DHT22;1923;48.154;11.536;2023-08-12T07:04:23;25.30;99.90
3816;DHT22;1923;48.154;11.536;2023-08-12T07:06:51;25.70;99.90
3816;DHT22;1923;48.154;11.536;2023-08-12T07:09:20;25.80;99.90
3816;DHT22;1923;48.154;11.536;2023-08-12T07:11:48;25.80;99.90
3816;DHT22;1923;48.154;11.536;2023-08-12T07:14:16;25.70;99.90
3816;DHT22;1923;48.154;11.536;2023-08-12T07:16:45;25.60;99.90
3816;DHT22;1923;48.154;11.536;2023-08-12T07:19:13;25.60;99.90
3816;DHT22;1923;48.154;11.536;2023-08-12T07:21:43;25.50;99.90
3816;DHT22;1923;48.154;11.536;2023-08-12T07:24:11;25.50;99.90
3816;DHT22;1923;48.154;11.536;2023-08-12T07:26:40;25.50;99.90
3816;DHT22;1923;48.154;11.536;2023-08-12T07:29:09;25.50;99.90
3816;DHT22;1923;48.154;11.536;2023-08-12T07:31:37;25.60;99.90
3816;DHT22;1923;48.154;11.536;2023-08-12T07:34:05;25.70;99.90
3816;DHT22;1923;48.154;11.536;2023-08-12T07:36:33;25.70;99.90
3816;DHT22;1923;48.154;11.536;2023-08-12T07:39:02;25.90;99.90
3816;DHT22;1923;48.154;11.536;2023-08-12T07:41:30;26.00;99.90
3816;DHT22;1923;48.154;11.536;2023-08-12T07:44:00;26.00;99.90
3816;DHT22;1923;48.154;11.536;2023-08-12T07:46:28;26.20;99.90
3816;DHT22;1923;48.154;11.536;2023-08-12T07:48:57;26.30;99.90
3816;DHT22;1923;48.154;11.536;2023-08-12T07:51:25;26.50;99.90
3816;DHT22;1923;48.154;11.536;2023-08-12T07:53:53;26.80;99.90
3816;DHT22;1923;48.154;11.536;2023-08-12T07:56:22;27.00;99.90
3816;DHT22;1923;48.154;11.536;2023-08-12T07:58:50;27.30;99.90
3816;DHT22;1923;48.154;11.536;2023-08-12T08:01:19;27.70;99.90
3816;DHT22;1923;48.154;11.536;2023-08-12T08:03:47;28.20;99.90
3816;DHT22;1923;48.154;11.536;2023-08-12T08:06:15;28.60;99.90
3816;DHT22;1923;48.154;11.536;2023-08-12T08:08:43;28.90;99.90
3816;DHT22;1923;48.154;11.536;2023-08-12T08:11:12;29.00;99.90
3816;DHT22;1923;48.154;11.536;2023-08-12T08:13:40;29.30;99.90
3816;DHT22;1923;48.154;11.536;2023-08-12T08:16:08;29.40;99.90
3816;DHT22;1923;48.154;11.536;2023-08-12T08:18:37;29.60;99.90
3816;DHT22;1923;48.154;11.536;2023-08-12T08:21:05;29.90;99.90
3816;DHT22;1923;48.154;11.536;2023-08-12T08:23:33;30.20;99.90
3816;DHT22;1923;48.154;11.536;2023-08-12T08:26:01;30.50;99.90
3816;DHT22;1923;48.154;11.536;2023-08-12T08:28:30;30.70;99.90
3816;DHT22;1923;48.154;11.536;2023-08-12T08:30:58;30.80;99.90
3816;DHT22;1923;48.154;11.536;2023-08-12T08:33:27;30.90;99.90
3816;DHT22;1923;48.154;11.536;2023-08-12T08:35:57;31.20;99.90
3816;DHT22;1923;48.154;11.536;2023-08-12T08:38:25;31.40;99.90
3816;DHT22;1923;48.154;11.536;2023-08-12T08:40:53;31.30;99.90
3816;DHT22;1923;48.154;11.536;2023-08-12T08:43:22;31.60;99.90
3816;DHT22;1923;48.154;11.536;2023-08-12T08:45:53;32.10;99.90
3816;DHT22;1923;48.154;11.536;2023-08-12T08:48:21;32.20;99.80
3816;DHT22;1923;48.154;11.536;2023-08-12T08:50:50;32.10;99.40
3816;DHT22;1923;48.154;11.536;2023-08-12T08:53:20;32.20;99.60
3816;DHT22;1923;48.154;11.536;2023-08-12T08:55:48;31.90;99.90
3816;DHT22;1923;48.154;11.536;2023-08-12T08:58:16;31.80;99.90
3816;DHT22;1923;48.154;11.536;2023-08-12T09:00:48;31.60;99.90
3816;DHT22;1923;48.154;11.536;2023-08-12T09:03:17;31.60;99.90
3816;DHT22;1923;48.154;11.536;2023-08-12T09:05:46;31.60;99.90
3816;DHT22;1923;48.154;11.536;2023-08-12T09:08:14;31.40;99.90
3816;DHT22;1923;48.154;11.536;2023-08-12T09:10:46;31.20;99.90
3816;DHT22;1923;48.154;11.536;2023-08-12T09:13:15;31.10;99.90
3816;DHT22;1923;48.154;11.536;2023-08-12T09:15:45;31.10;99.90
3816;DHT22;1923;48.154;11.536;2023-08-12T09:18:13;30.90;99.90
3816;DHT22;1923;48.154;11.536;2023-08-12T09:20:41;30.80;99.90
3816;DHT22;1923;48.154;11.536;2023-08-12T09:23:10;30.70;99.90
3816;DHT22;1923;48.154;11.536;2023-08-12T09:25:42;30.80;99.90
3816;DHT22;1923;48.154;11.536;2023-08-12T09:28:12;30.60;99.90
3816;DHT22;1923;48.154;11.536;2023-08-12T09:30:41;30.60;99.90
3816;DHT22;1923;48.154;11.536;2023-08-12T09:33:09;30.80;99.90
3816;DHT22;1923;48.154;11.536;2023-08-12T09:35:39;30.90;99.90
3816;DHT22;1923;48.154;11.536;2023-08-12T09:38:10;31.20;99.90
3816;DHT22;1923;48.154;11.536;2023-08-12T09:40:39;31.50;99.90
3816;DHT22;1923;48.154;11.536;2023-08-12T09:43:09;32.00;99.90
3816;DHT22;1923;48.154;11.536;2023-08-12T09:45:41;32.40;99.90
3816;DHT22;1923;48.154;11.536;2023-08-12T09:48:11;32.30;99.90
3816;DHT22;1923;48.154;11.536;2023-08-12T09:50:43;32.40;99.90
3816;DHT22;1923;48.154;11.536;2023-08-12T09:53:12;32.10;99.90
3816;DHT22;1923;48.154;11.536;2023-08-12T09:55:41;31.90;99.90
3816;DHT22;1923;48.154;11.536;2023-08-12T09:58:10;31.80;99.90
3816;DHT22;1923;48.154;11.536;2023-08-12T10:00:42;31.70;99.90
3816;DHT22;1923;48.154;11.536;2023-08-12T10:03:11;31.50;99.90
3816;DHT22;1923;48.154;11.536;2023-08-12T10:05:41;31.60;99.90
3816;DHT22;1923;48.154;11.536;2023-08-12T10:08:11;31.80;99.90
3816;DHT22;1923;48.154;11.536;2023-08-12T10:10:42;32.40;99.30
3816;DHT22;1923;48.154;11.536;2023-08-12T10:13:16;33.10;98.50
3816;DHT22;1923;48.154;11.536;2023-08-12T10:15:46;33.50;97.10
3816;DHT22;1923;48.154;11.536;2023-08-12T10:18:15;34.00;96.70
3816;DHT22;1923;48.154;11.536;2023-08-12T10:20:44;34.10;95.80
3816;DHT22;1923;48.154;11.536;2023-08-12T10:23:15;34.20;95.60
3816;DHT22;1923;48.154;11.536;2023-08-12T10:25:43;34.20;95.10
3816;DHT22;1923;48.154;11.536;2023-08-12T10:28:12;34.20;95.30
3816;DHT22;1923;48.154;11.536;2023-08-12T10:30:40;34.10;95.20
3816;DHT22;1923;48.154;11.536;2023-08-12T10:33:11;34.00;95.00
3816;DHT22;1923;48.154;11.536;2023-08-12T10:35:41;33.90;95.40
3816;DHT22;1923;48.154;11.536;2023-08-12T10:38:12;34.10;95.50
3816;DHT22;1923;48.154;11.536;2023-08-12T10:40:41;35.30;94.70
3816;DHT22;1923;48.154;11.536;2023-08-12T10:43:10;36.40;92.70
3816;DHT22;1923;48.154;11.536;2023-08-12T10:45:44;37.60;90.80
3816;DHT22;1923;48.154;11.536;2023-08-12T10:48:21;39.10;86.00
3816;DHT22;1923;48.154;11.536;2023-08-12T10:50:55;40.90;80.00
3816;DHT22;1923;48.154;11.536;2023-08-12T10:53:26;42.20;74.00
3816;DHT22;1923;48.154;11.536;2023-08-12T10:55:59;42.90;64.70
3816;DHT22;1923;48.154;11.536;2023-08-12T10:58:29;43.40;61.70
3816;DHT22;1923;48.154;11.536;2023-08-12T11:00:58;43.90;59.80
3816;DHT22;1923;48.154;11.536;2023-08-12T11:03:31;43.90;56.80
3816;DHT22;1923;48.154;11.536;2023-08-12T11:06:04;44.20;55.60
3816;DHT22;1923;48.154;11.536;2023-08-12T11:08:33;44.50;54.50
3816;DHT22;1923;48.154;11.536;2023-08-12T11:11:02;45.00;52.60
3816;DHT22;1923;48.154;11.536;2023-08-12T11:13:30;44.80;51.70
3816;DHT22;1923;48.154;11.536;2023-08-12T11:16:06;44.80;51.20
3816;DHT22;1923;48.154;11.536;2023-08-12T11:18:36;44.70;51.00
3816;DHT22;1923;48.154;11.536;2023-08-12T11:21:05;44.10;50.60
3816;DHT22;1923;48.154;11.536;2023-08-12T11:23:33;43.10;51.40
3816;DHT22;1923;48.154;11.536;2023-08-12T11:26:03;41.60;53.30
3816;DHT22;1923;48.154;11.536;2023-08-12T11:28:31;40.10;55.60
3816;DHT22;1923;48.154;11.536;2023-08-12T11:30:59;39.00;56.00
3816;DHT22;1923;48.154;11.536;2023-08-12T11:33:29;38.10;57.40
3816;DHT22;1923;48.154;11.536;2023-08-12T11:35:59;37.30;58.70
3816;DHT22;1923;48.154;11.536;2023-08-12T11:38:28;36.40;59.60
3816;DHT22;1923;48.154;11.536;2023-08-12T11:40:56;35.70;61.00
3816;DHT22;1923;48.154;11.536;2023-08-12T11:43:24;35.10;63.10
3816;DHT22;1923;48.154;11.536;2023-08-12T11:45:55;34.70;64.40
3816;DHT22;1923;48.154;11.536;2023-08-12T11:48:23;34.30;65.60
3816;DHT22;1923;48.154;11.536;2023-08-12T11:50:52;33.90;66.40
3816;DHT22;1923;48.154;11.536;2023-08-12T11:53:22;33.70;68.50
3816;DHT22;1923;48.154;11.536;2023-08-12T11:55:50;33.50;68.90
3816;DHT22;1923;48.154;11.536;2023-08-12T11:58:18;33.30;70.00
3816;DHT22;1923;48.154;11.536;2023-08-12T12:00:47;33.10;70.60
3816;DHT22;1923;48.154;11.536;2023-08-12T12:03:16;33.10;71.50
3816;DHT22;1923;48.154;11.536;2023-08-12T12:05:46;33.00;72.40
3816;DHT22;1923;48.154;11.536;2023-08-12T12:08:15;32.90;70.30
3816;DHT22;1923;48.154;11.536;2023-08-12T12:10:45;32.80;70.90
3816;DHT22;1923;48.154;11.536;2023-08-12T12:13:14;32.70;71.60
3816;DHT22;1923;48.154;11.536;2023-08-12T12:15:42;32.60;70.80
3816;DHT22;1923;48.154;11.536;2023-08-12T12:18:11;32.50;71.30
3816;DHT22;1923;48.154;11.536;2023-08-12T12:20:54;32.60;72.00
3816;DHT22;1923;48.154;11.536;2023-08-12T12:23:27;32.60;72.80
3816;DHT22;1923;48.154;11.536;2023-08-12T12:26:01;32.50;73.40
3816;DHT22;1923;48.154;11.536;2023-08-12T12:28:30;32.50;74.80
3816;DHT22;1923;48.154;11.536;2023-08-12T12:30:58;32.40;74.80
3816;DHT22;1923;48.154;11.536;2023-08-12T12:33:26;32.50;75.80
3816;DHT22;1923;48.154;11.536;2023-08-12T12:35:55;32.60;76.00
3816;DHT22;1923;48.154;11.536;2023-08-12T12:38:27;32.50;75.10
3816;DHT22;1923;48.154;11.536;2023-08-12T12:40:56;32.50;75.80
3816;DHT22;1923;48.154;11.536;2023-08-12T12:43:25;32.60;75.70
3816;DHT22;1923;48.154;11.536;2023-08-12T12:45:53;32.60;75.90
3816;DHT22;1923;48.154;11.536;2023-08-12T12:48:22;32.40;76.30
3816;DHT22;1923;48.154;11.536;2023-08-12T12:50:50;32.30;77.00
3816;DHT22;1923;48.154;11.536;2023-08-12T12:53:18;32.30;77.60
3816;DHT22;1923;48.154;11.536;2023-08-12T12:55:46;32.40;76.80
3816;DHT22;1923;48.154;11.536;2023-08-12T12:58:14;32.50;76.20
3816;DHT22;1923;48.154;11.536;2023-08-12T13:00:44;32.60;76.30
3816;DHT22;1923;48.154;11.536;2023-08-12T13:03:12;32.50;76.40
3816;DHT22;1923;48.154;11.536;2023-08-12T13:05:40;32.50;75.30
3816;DHT22;1923;48.154;11.536;2023-08-12T13:08:09;32.60;75.30
3816;DHT22;1923;48.154;11.536;2023-08-12T13:10:36;32.70;75.20
3816;DHT22;1923;48.154;11.536;2023-08-12T13:13:05;32.70;73.80
3816;DHT22;1923;48.154;11.536;2023-08-12T13:15:33;32.70;72.80
3816;DHT22;1923;48.154;11.536;2023-08-12T13:18:03;32.50;73.00
3816;DHT22;1923;48.154;11.536;2023-08-12T13:20:30;32.40;73.40
3816;DHT22;1923;48.154;11.536;2023-08-12T13:22:58;32.50;73.30
3816;DHT22;1923;48.154;11.536;2023-08-12T13:25:29;32.60;73.20
3816;DHT22;1923;48.154;11.536;2023-08-12T13:27:58;32.60;74.60
3816;DHT22;1923;48.154;11.536;2023-08-12T13:30:26;32.80;74.50
3816;DHT22;1923;48.154;11.536;2023-08-12T13:32:55;32.80;74.40
3816;DHT22;1923;48.154;11.536;2023-08-12T13:35:28;32.80;73.20
3816;DHT22;1923;48.154;11.536;2023-08-12T13:37:56;32.90;73.40
3816;DHT22;1923;48.154;11.536;2023-08-12T13:40:24;32.90;73.50
3816;DHT22;1923;48.154;11.536;2023-08-12T13:42:53;33.00;73.10
3816;DHT22;1923;48.154;11.536;2023-08-12T13:45:21;33.00;73.50
3816;DHT22;1923;48.154;11.536;2023-08-12T13:47:50;32.90;73.50
3816;DHT22;1923;48.154;11.536;2023-08-12T13:50:19;33.00;74.20
3816;DHT22;1923;48.154;11.536;2023-08-12T13:52:49;32.90;74.30
3816;DHT22;1923;48.154;11.536;2023-08-12T13:55:17;33.00;73.80
3816;DHT22;1923;48.154;11.536;2023-08-12T13:57:46;33.00;73.30
3816;DHT22;1923;48.154;11.536;2023-08-12T14:00:14;32.80;73.90
3816;DHT22;1923;48.154;11.536;2023-08-12T14:02:42;32.80;73.90
3816;DHT22;1923;48.154;11.536;2023-08-12T14:05:11;32.80;74.80
3816;DHT22;1923;48.154;11.536;2023-08-12T14:07:39;32.90;75.00
3816;DHT22;1923;48.154;11.536;2023-08-12T14:10:09;32.90;75.80
3816;DHT22;1923;48.154;11.536;2023-08-12T14:12:37;32.90;75.80
3816;DHT22;1923;48.154;11.536;2023-08-12T14:15:06;32.80;74.60
3816;DHT22;1923;48.154;11.536;2023-08-12T14:17:34;32.80;75.50
3816;DHT22;1923;48.154;11.536;2023-08-12T14:20:02;32.90;76.20
3816;DHT22;1923;48.154;11.536;2023-08-12T14:22:34;32.70;76.30
3816;DHT22;1923;48.154;11.536;2023-08-12T14:25:03;32.70;76.70
3816;DHT22;1923;48.154;11.536;2023-08-12T14:27:33;32.60;77.00
3816;DHT22;1923;48.154;11.536;2023-08-12T14:30:01;32.60;76.30
3816;DHT22;1923;48.154;11.536;2023-08-12T14:32:30;32.50;76.40
3816;DHT22;1923;48.154;11.536;2023-08-12T14:34:58;32.40;75.70
3816;DHT22;1923;48.154;11.536;2023-08-12T14:37:26;32.40;76.10
3816;DHT22;1923;48.154;11.536;2023-08-12T14:39:55;32.40;76.20
3816;DHT22;1923;48.154;11.536;2023-08-12T14:42:23;32.40;76.90
3816;DHT22;1923;48.154;11.536;2023-08-12T14:44:53;32.40;77.00
3816;DHT22;1923;48.154;11.536;2023-08-12T14:47:21;32.30;76.80
3816;DHT22;1923;48.154;11.536;2023-08-12T14:49:49;32.20;77.00
3816;DHT22;1923;48.154;11.536;2023-08-12T14:52:20;32.20;77.10
3816;DHT22;1923;48.154;11.536;2023-08-12T14:54:49;32.20;78.60
3816;DHT22;1923;48.154;11.536;2023-08-12T14:57:17;32.20;79.30
3816;DHT22;1923;48.154;11.536;2023-08-12T14:59:45;32.10;79.80
3816;DHT22;1923;48.154;11.536;2023-08-12T15:02:20;32.00;80.70
3816;DHT22;1923;48.154;11.536;2023-08-12T15:04:51;32.00;81.20
3816;DHT22;1923;48.154;11.536;2023-08-12T15:07:20;31.70;79.00
3816;DHT22;1923;48.154;11.536;2023-08-12T15:09:49;31.50;78.20
3816;DHT22;1923;48.154;11.536;2023-08-12T15:12:18;31.30;76.60
3816;DHT22;1923;48.154;11.536;2023-08-12T15:14:47;31.20;76.50
3816;DHT22;1923;48.154;11.536;2023-08-12T15:17:15;31.10;76.80
3816;DHT22;1923;48.154;11.536;2023-08-12T15:19:44;31.00;76.80
3816;DHT22;1923;48.154;11.536;2023-08-12T15:22:12;31.00;76.70
3816;DHT22;1923;48.154;11.536;2023-08-12T15:24:41;31.00;76.30
3816;DHT22;1923;48.154;11.536;2023-08-12T15:27:09;30.90;76.10
3816;DHT22;1923;48.154;11.536;2023-08-12T15:29:38;30.80;76.40
3816;DHT22;1923;48.154;11.536;2023-08-12T15:32:06;30.70;76.70
3816;DHT22;1923;48.154;11.536;2023-08-12T15:34:37;30.80;76.90
3816;DHT22;1923;48.154;11.536;2023-08-12T15:37:06;30.80;77.20
3816;DHT22;1923;48.154;11.536;2023-08-12T15:39:38;30.80;76.90
3816;DHT22;1923;48.154;11.536;2023-08-12T15:42:07;30.70;76.30
3816;DHT22;1923;48.154;11.536;2023-08-12T15:44:39;30.80;77.20
3816;DHT22;1923;48.154;11.536;2023-08-12T15:47:08;30.80;77.80
3816;DHT22;1923;48.154;11.536;2023-08-12T15:49:37;30.80;77.80
3816;DHT22;1923;48.154;11.536;2023-08-12T15:52:07;30.70;78.30
3816;DHT22;1923;48.154;11.536;2023-08-12T15:54:35;30.60;78.40